Time,TemperatureF,DewpointF,PressureIn,WindDirection,WindDirectionDegrees,WindSpeedMPH,WindSpeedGustMPH,Humidity,HourlyPrecipIn,Conditions,Clouds,dailyrainin,SolarRadiationWatts/m^2,SoftwareType,DateUTC
2013-08-30 08:30:00,67.4,58.4,29.79,ENE,78,1.0,1.0,73,0.00,,,0.00,359,Wunderground v.1.15,2013-08-30 14:30:00,
2013-08-30 08:40:00,67.7,58.0,29.79,SE,138,2.0,5.0,71,0.00,,,0.00,374,Wunderground v.1.15,2013-08-30 14:40:00,
2013-08-30 08:45:00,67.6,57.5,29.79,ESE,108,3.0,5.0,70,0.00,,,0.00,383,Wunderground v.1.15,2013-08-30 14:45:00,
2013-08-30 08:50:00,67.6,59.0,29.79,ESE,118,2.0,2.0,74,0.00,,,0.00,396,Wunderground v.1.15,2013-08-30 14:50:00,
2013-08-30 08:55:00,67.9,59.3,29.79,ESE,115,1.0,2.0,74,0.00,,,0.00,417,Wunderground v.1.15,2013-08-30 14:55:00,
2013-08-30 09:00:00,68.0,59.4,29.79,NNE,27,0.0,4.0,74,0.00,,,0.00,404,Wunderground v.1.15,2013-08-30 15:00:00,
2013-08-30 09:05:00,68.0,60.2,29.79,ENE,65,1.0,9.0,76,0.00,,,0.00,424,Wunderground v.1.15,2013-08-30 15:05:00,
2013-08-30 09:10:00,67.9,59.7,29.79,ENE,60,1.0,1.0,75,0.00,,,0.00,439,Wunderground v.1.15,2013-08-30 15:10:00,
2013-08-30 09:15:00,67.8,59.6,29.79,ENE,65,1.0,9.0,75,0.00,,,0.00,441,Wunderground v.1.15,2013-08-30 15:15:00,
2013-08-30 09:20:00,67.6,59.0,29.79,ENE,57,2.0,2.0,74,0.00,,,0.00,450,Wunderground v.1.15,2013-08-30 15:20:00,
2013-08-30 09:25:00,67.8,59.2,29.79,NE,56,1.0,9.0,74,0.00,,,0.00,454,Wunderground v.1.15,2013-08-30 15:25:00,
2013-08-30 09:30:00,67.7,59.1,29.79,ESE,105,1.0,1.0,74,0.00,,,0.00,462,Wunderground v.1.15,2013-08-30 15:30:00,
2013-08-30 09:35:00,67.9,60.1,29.80,ESE,107,1.0,3.0,76,0.00,,,0.00,496,Wunderground v.1.15,2013-08-30 15:35:00,
2013-08-30 09:50:00,67.8,60.0,29.80,NE,41,3.0,9.0,76,0.00,,,0.00,512,Wunderground v.1.15,2013-08-30 15:50:00,
2013-08-30 09:55:00,67.7,59.5,29.80,ENE,60,4.0,9.0,75,0.00,,,0.00,494,Wunderground v.1.15,2013-08-30 15:55:00,
2013-08-30 10:00:00,67.7,59.5,29.79,ENE,60,4.0,4.0,75,0.00,,,0.00,478,Wunderground v.1.15,2013-08-30 16:00:00,
2013-08-30 10:10:00,67.3,59.1,29.79,NE,42,4.0,4.0,75,0.00,,,0.00,512,Wunderground v.1.15,2013-08-30 16:10:00,
2013-08-30 10:15:00,67.6,59.4,29.79,East,97,3.0,9.0,75,0.00,,,0.00,615,Wunderground v.1.15,2013-08-30 16:15:00,
2013-08-30 10:20:00,68.1,60.2,29.79,NNE,15,0.0,9.0,76,0.00,,,0.00,617,Wunderground v.1.15,2013-08-30 16:20:00,
2013-08-30 10:25:00,68.3,59.7,29.78,NNE,19,1.0,9.0,74,0.00,,,0.00,636,Wunderground v.1.15,2013-08-30 16:25:00,
2013-08-30 10:30:00,68.3,59.7,29.78,NE,35,3.0,3.0,74,0.00,,,0.00,656,Wunderground v.1.15,2013-08-30 16:30:00,
2013-08-30 10:35:00,68.4,60.9,29.77,NE,50,4.0,4.0,77,0.00,,,0.00,622,Wunderground v.1.15,2013-08-30 16:35:00,
2013-08-30 10:45:00,68.7,61.2,29.77,NE,37,2.0,6.0,77,0.00,,,0.00,636,Wunderground v.1.15,2013-08-30 16:45:00,
2013-08-30 10:50:00,68.8,60.9,29.77,NE,50,4.0,4.0,76,0.00,,,0.00,606,Wunderground v.1.15,2013-08-30 16:50:00,
2013-08-30 10:55:00,68.8,60.6,29.77,NE,55,4.0,9.0,75,0.00,,,0.00,679,Wunderground v.1.15,2013-08-30 16:55:00,
2013-08-30 11:00:00,68.9,60.3,29.77,ENE,59,4.0,4.0,74,0.00,,,0.00,754,Wunderground v.1.15,2013-08-30 17:00:00,
2013-08-30 11:05:00,69.2,61.3,29.76,ENE,59,3.0,9.0,76,0.00,,,0.00,819,Wunderground v.1.15,2013-08-30 17:05:00,
2013-08-30 11:10:00,69.3,61.0,29.76,NNE,22,4.0,9.0,75,0.00,,,0.00,782,Wunderground v.1.15,2013-08-30 17:10:00,
2013-08-30 11:15:00,68.9,60.6,29.77,NE,42,6.0,11.0,75,0.00,,,0.00,758,Wunderground v.1.15,2013-08-30 17:15:00,
2013-08-30 11:20:00,68.6,60.7,29.77,NNE,30,6.0,6.0,76,0.00,,,0.00,779,Wunderground v.1.15,2013-08-30 17:20:00,
2013-08-30 11:25:00,68.7,60.5,29.77,NE,53,6.0,12.0,75,0.00,,,0.00,881,Wunderground v.1.15,2013-08-30 17:25:00,
2013-08-30 11:30:00,68.8,60.9,29.76,NNE,17,6.0,6.0,76,0.00,,,0.00,925,Wunderground v.1.15,2013-08-30 17:30:00,
2013-08-30 11:35:00,69.0,60.7,29.76,NNE,15,6.0,6.0,75,0.00,,,0.00,942,Wunderground v.1.15,2013-08-30 17:35:00,
2013-08-30 11:40:00,68.8,60.9,29.76,North,360,6.0,6.0,76,0.00,,,0.00,983,Wunderground v.1.15,2013-08-30 17:40:00,
2013-08-30 11:45:00,69.4,61.5,29.75,East,101,4.0,6.0,76,0.00,,,0.00,900,Wunderground v.1.15,2013-08-30 17:45:00,
2013-08-30 11:50:00,70.0,61.7,29.75,ENE,57,2.0,10.0,75,0.00,,,0.00,747,Wunderground v.1.15,2013-08-30 17:50:00,
2013-08-30 11:55:00,70.1,60.7,29.75,ENE,65,3.0,10.0,72,0.00,,,0.00,696,Wunderground v.1.15,2013-08-30 17:55:00,
2013-08-30 12:00:00,69.9,60.8,29.74,NE,47,4.0,8.0,73,0.00,,,0.00,675,Wunderground v.1.15,2013-08-30 18:00:00,
2013-08-30 12:05:00,69.8,60.0,29.74,NE,47,3.0,8.0,71,0.00,,,0.00,664,Wunderground v.1.15,2013-08-30 18:05:00,
2013-08-30 12:10:00,69.8,60.8,29.74,East,87,2.0,2.0,73,0.00,,,0.00,673,Wunderground v.1.15,2013-08-30 18:10:00,
2013-08-30 12:15:00,70.3,61.6,29.73,NE,35,2.0,5.0,74,0.00,,,0.00,708,Wunderground v.1.15,2013-08-30 18:15:00,
2013-08-30 12:20:00,70.7,61.2,29.73,NNE,14,2.0,2.0,72,0.00,,,0.00,976,Wunderground v.1.15,2013-08-30 18:20:00,
2013-08-30 12:25:00,70.5,60.6,29.73,North,355,4.0,6.0,71,0.00,,,0.00,1048,Wunderground v.1.15,2013-08-30 18:25:00,
2013-08-30 12:30:00,70.3,60.4,29.73,North,355,7.0,11.0,71,0.00,,,0.00,1072,Wunderground v.1.15,2013-08-30 18:30:00,
2013-08-30 12:35:00,70.4,60.5,29.73,North,355,8.0,11.0,71,0.00,,,0.00,1144,Wunderground v.1.15,2013-08-30 18:35:00,
2013-08-30 12:40:00,70.6,60.7,29.73,North,360,8.0,13.0,71,0.00,,,0.00,1016,Wunderground v.1.15,2013-08-30 18:40:00,
2013-08-30 12:45:00,70.8,60.9,29.72,North,5,8.0,13.0,71,0.00,,,0.00,1048,Wunderground v.1.15,2013-08-30 18:45:00,
2013-08-30 12:50:00,70.1,61.8,29.72,WNW,298,10.0,10.0,75,0.00,,,0.00,390,Wunderground v.1.15,2013-08-30 18:50:00,
2013-08-30 12:55:00,69.8,62.3,29.72,NNW,348,9.0,10.0,77,0.00,,,0.00,603,Wunderground v.1.15,2013-08-30 18:55:00,
2013-08-30 13:00:00,69.9,62.4,29.71,NNE,32,6.0,14.0,77,0.00,,,0.00,807,Wunderground v.1.15,2013-08-30 19:00:00,
2013-08-30 13:05:00,69.8,61.9,29.71,North,350,6.0,14.0,76,0.00,,,0.00,443,Wunderground v.1.15,2013-08-30 19:05:00,
2013-08-30 13:15:00,70.3,62.7,29.71,SSE,151,3.0,7.0,77,0.00,,,0.00,327,Wunderground v.1.15,2013-08-30 19:15:00,
2013-08-30 13:20:00,70.7,62.4,29.71,ESE,120,1.0,1.0,75,0.00,,,0.00,401,Wunderground v.1.15,2013-08-30 19:20:00,
2013-08-30 13:25:00,70.7,62.4,29.70,SE,126,1.0,2.0,75,0.00,,,0.00,555,Wunderground v.1.15,2013-08-30 19:25:00,
2013-08-30 13:30:00,70.8,62.5,29.70,North,360,1.0,4.0,75,0.00,,,0.00,635,Wunderground v.1.15,2013-08-30 19:30:00,
2013-08-30 13:40:00,70.2,61.5,29.70,North,355,7.0,9.0,74,0.00,,,0.00,705,Wunderground v.1.15,2013-08-30 19:40:00,
2013-08-30 13:45:00,69.8,61.1,29.70,North,5,8.0,9.0,74,0.00,,,0.00,610,Wunderground v.1.15,2013-08-30 19:45:00,
2013-08-30 13:50:00,69.6,61.3,29.69,NNE,30,9.0,9.0,75,0.00,,,0.00,809,Wunderground v.1.15,2013-08-30 19:50:00,
2013-08-30 13:55:00,69.7,61.8,29.70,NNE,27,6.0,9.0,76,0.00,,,0.00,649,Wunderground v.1.15,2013-08-30 19:55:00,
2013-08-30 14:00:00,70.0,61.7,29.69,NNE,33,4.0,4.0,75,0.00,,,0.00,642,Wunderground v.1.15,2013-08-30 20:00:00,
2013-08-30 14:05:00,70.3,61.6,29.69,East,95,3.0,4.0,74,0.00,,,0.00,552,Wunderground v.1.15,2013-08-30 20:05:00,
2013-08-30 14:10:00,70.6,61.5,29.69,East,94,2.0,4.0,73,0.00,,,0.00,650,Wunderground v.1.15,2013-08-30 20:10:00,
2013-08-30 14:15:00,70.9,62.6,29.69,NE,46,2.0,8.0,75,0.00,,,0.00,675,Wunderground v.1.15,2013-08-30 20:15:00,
2013-08-30 14:20:00,70.9,61.0,29.68,NE,42,2.0,2.0,71,0.00,,,0.00,624,Wunderground v.1.15,2013-08-30 20:20:00,
2013-08-30 14:25:00,71.0,61.9,29.68,NE,38,2.0,2.0,73,0.00,,,0.00,436,Wunderground v.1.15,2013-08-30 20:25:00,
2013-08-30 14:30:00,70.6,63.4,29.68,NW,308,2.0,6.0,78,0.00,,,0.00,325,Wunderground v.1.15,2013-08-30 20:30:00,
2013-08-30 14:35:00,69.4,62.6,29.68,WNW,300,4.0,6.0,79,0.00,,,0.00,512,Wunderground v.1.15,2013-08-30 20:35:00,
2013-08-30 14:40:00,69.1,63.0,29.68,WNW,303,6.0,6.0,81,0.00,,,0.00,334,Wunderground v.1.15,2013-08-30 20:40:00,
2013-08-30 14:45:00,68.2,62.5,29.68,WNW,289,7.0,7.0,82,0.00,,,0.00,385,Wunderground v.1.15,2013-08-30 20:45:00,
2013-08-30 14:50:00,67.9,62.5,29.67,WSW,252,7.0,7.0,83,0.00,,,0.00,295,Wunderground v.1.15,2013-08-30 20:50:00,
2013-08-30 14:55:00,67.8,63.5,29.68,WNW,296,6.0,7.0,86,0.00,,,0.00,229,Wunderground v.1.15,2013-08-30 20:55:00,
2013-08-30 15:00:00,67.3,62.6,29.68,WNW,292,5.0,6.0,85,0.00,,,0.00,183,Wunderground v.1.15,2013-08-30 21:00:00,
2013-08-30 15:05:00,66.7,62.4,29.68,WNW,293,6.0,6.0,86,0.00,,,0.00,174,Wunderground v.1.15,2013-08-30 21:05:00,
2013-08-30 15:10:00,66.7,63.0,29.68,NW,322,5.0,5.0,88,0.00,,,0.00,255,Wunderground v.1.15,2013-08-30 21:10:00,